This is the latest recevied weather packets stored in our database for station/object KK7KRZ. If no packets are shown the sender has not sent any weather packets the latest 1 day(s).
| Time | Temp. | Humidity | Pressure | Rain* | Wind** | Luminosity | Snow |
|---|---|---|---|---|---|---|---|
| 1778085135 | 12.78° C | 90% | 1021 hPa | 0 mm | - | 121 W/m² | - |
| 1778084529 | 12.78° C | 90% | 1021.2 hPa | 0 mm | - | 88 W/m² | - |
| 1778084226 | 12.78° C | 90% | 1020.8 hPa | 0 mm | - | 103 W/m² | - |
| 1778083620 | 12.78° C | 91% | 1020.5 hPa | 0 mm | - | 127 W/m² | - |
| 1778080974 | 11.67° C | 91% | 1021 hPa | 0 mm | - | 47 W/m² | - |
| 1778080673 | 11.67° C | 91% | 1021.2 hPa | 0 mm | - | 35 W/m² | - |
| 1778080369 | 11.67° C | 91% | 1021.2 hPa | 0 mm | - | 31 W/m² | - |
| 1778079763 | 11.67° C | 90% | 1021.1 hPa | 0 mm | - | 18 W/m² | - |
| 1778079156 | 12.22° C | 91% | 1021.1 hPa | 0 mm | - | 16 W/m² | - |
| 1778078248 | 11.67° C | 93% | 1020.5 hPa | 0 mm | - | 30 W/m² | - |
| 1778077644 | 11.67° C | 93% | 1020.1 hPa | 0 mm | - | 41 W/m² | - |
| 1778076435 | 10.56° C | 95% | 1020.1 hPa | 0 mm | - | 23 W/m² | - |
| 1778074009 | 11.11° C | 94% | 1019.9 hPa | 0 mm | - | 10 W/m² | - |
| 1778072796 | 11.11° C | 94% | 1019.7 hPa | 0 mm | - | 3 W/m² | - |
| 1778071889 | 11.11° C | 94% | 1019.7 hPa | 0 mm | - | 0 W/m² | - |
| 1778071587 | 11.67° C | 94% | 1019.7 hPa | 0 mm | - | 0 W/m² | - |
| 1778070982 | 11.67° C | 94% | 1019.8 hPa | 0 mm | - | 0 W/m² | - |
| 1778068863 | 11.11° C | 95% | 1019.4 hPa | 0 mm | - | 0 W/m² | - |
| 1778066443 | 11.11° C | 96% | 1019 hPa | 0 mm | - | 0 W/m² | - |
| 1778066141 | 11.11° C | 96% | 1018.7 hPa | 0 mm | - | 0 W/m² | - |
| 1778065838 | 11.11° C | 96% | 1018.6 hPa | 0 mm | - | 0 W/m² | - |
| 1778065233 | 10.56° C | 96% | 1018.6 hPa | 0 mm | - | 0 W/m² | - |
| 1778064022 | 10.56° C | 96% | 1018 hPa | 0 mm | - | 0 W/m² | - |
| 1778063719 | 10.56° C | 96% | 1018.2 hPa | 0 mm | - | 0 W/m² | - |
| 1778063114 | 10° C | 96% | 1018.2 hPa | 0 mm | - | 0 W/m² | - |
* Rain latest hour (hover to see other rain measurements)
** Current wind speed in m/s (hover to see current wind gust speed)